Time;durP1;ratioP1;P1;durP2;ratioP2;P2;SDS_P1;SDS_P2;PMS_P1;PMS_P2;Temp;Humidity;BMP_temperature;BMP_pressure;BME280_temperature;BME280_humidity;BME280_pressure;Samples;Min_cycle;Max_cycle;Signal;HPM_P1;HPM_P2
2021/04/12 00:01:18;;;;;;;19.85;7.82;;;;;;;;;;4885453;29;20047;-82
2021/04/12 00:04:27;;;;;;;16.88;8.27;;;2.60;99.90;;;;;;4937114;29;20051;-83
2021/04/12 00:07:27;;;;;;;14.50;8.35;;;;;;;;;;4913258;29;20062;-82
2021/04/12 00:10:17;;;;;;;14.15;7.47;;;;;;;;;;4935575;29;20056;-81
2021/04/12 00:12:55;;;;;;;16.50;8.52;;;;;;;;;;4940432;29;20051;-82
2021/04/12 00:15:34;;;;;;;20.15;9.38;;;;;;;;;;4924797;29;20056;-82
2021/04/12 00:18:22;;;;;;;15.90;7.40;;;;;;;;;;4913433;29;20059;-85
2021/04/12 00:21:03;;;;;;;12.65;7.20;;;2.60;99.90;;;;;;4924817;29;20055;-84
2021/04/12 00:23:41;;;;;;;14.85;7.93;;;2.60;99.90;;;;;;4937542;29;20055;-85
2021/04/12 00:26:09;;;;;;;15.45;8.40;;;;;;;;;;4924950;29;20059;-82
2021/04/12 00:28:44;;;;;;;18.05;7.30;;;2.40;99.90;;;;;;4921086;29;20055;-81
2021/04/12 00:31:15;;;;;;;18.00;8.65;;;;;;;;;;4935166;29;20066;-82
2021/04/12 00:33:50;;;;;;;15.20;8.60;;;2.50;99.90;;;;;;4919196;29;20065;-82
2021/04/12 00:36:28;;;;;;;16.73;7.72;;;2.60;99.90;;;;;;4919500;29;20047;-83
2021/04/12 00:39:13;;;;;;;12.68;7.32;;;2.50;99.90;;;;;;4945302;29;20059;-83
2021/04/12 00:42:06;;;;;;;14.48;8.35;;;2.60;99.90;;;;;;4932709;29;20439;-82
2021/04/12 00:44:52;;;;;;;19.73;8.63;;;;;;;;;;4898172;29;20056;-83
2021/04/12 00:47:38;;;;;;;15.05;8.23;;;2.40;99.90;;;;;;4928209;29;20056;-83
2021/04/12 00:50:06;;;;;;;18.50;8.25;;;;;;;;;;4909276;29;20052;-82
2021/04/12 00:52:43;;;;;;;19.65;9.93;;;;;;;;;;4905094;29;20055;-82
2021/04/12 00:55:21;;;;;;;14.90;7.95;;;;;;;;;;4902866;29;20056;-82
2021/04/12 00:57:48;;;;;;;14.82;8.15;;;;;;;;;;4908795;29;20500;-83
2021/04/12 01:00:34;;;;;;;20.00;7.75;;;2.40;99.90;;;;;;4904372;29;20543;-82
2021/04/12 01:03:39;;;;;;;15.32;7.70;;;2.40;99.90;;;;;;4902823;29;20067;-83
2021/04/12 01:06:21;;;;;;;14.90;7.40;;;2.40;99.90;;;;;;4902616;29;20068;-83
2021/04/12 01:08:55;;;;;;;14.15;8.15;;;;;;;;;;4910359;29;20067;-83
2021/04/12 01:11:43;;;;;;;17.95;8.10;;;2.30;99.90;;;;;;4934554;29;20048;-84
2021/04/12 01:14:24;;;;;;;16.00;7.43;;;2.40;99.90;;;;;;4936503;29;20072;-82
2021/04/12 01:17:16;;;;;;;19.65;8.20;;;2.40;99.90;;;;;;4907525;29;20071;-82
2021/04/12 01:19:56;;;;;;;11.15;5.95;;;;;;;;;;4917728;29;20052;-83
2021/04/12 01:23:01;;;;;;;14.05;7.13;;;2.50;99.90;;;;;;4906995;29;20063;-83
2021/04/12 01:25:53;;;;;;;17.55;7.60;;;2.30;99.90;;;;;;4912146;29;20063;-84
2021/04/12 01:28:52;;;;;;;15.45;7.10;;;2.40;99.90;;;;;;4904543;29;20128;-86
2021/04/12 01:31:56;;;;;;;16.50;7.72;;;2.30;99.90;;;;;;4919364;29;20202;-82
2021/04/12 01:34:33;;;;;;;15.32;8.05;;;;;;;;;;4897598;29;20381;-85
2021/04/12 01:37:25;;;;;;;14.65;7.43;;;2.20;99.90;;;;;;4907499;29;20071;-83
2021/04/12 01:39:59;;;;;;;22.63;8.98;;;2.20;99.90;;;;;;4905194;29;20068;-82
2021/04/12 01:42:43;;;;;;;13.88;8.00;;;2.20;99.90;;;;;;4903784;29;20052;-83
2021/04/12 01:45:28;;;;;;;14.15;6.15;;;2.20;99.90;;;;;;4924080;29;20059;-84
2021/04/12 01:48:23;;;;;;;18.50;8.43;;;2.20;99.90;;;;;;4947315;29;20471;-82
2021/04/12 01:51:15;;;;;;;16.20;8.02;;;2.10;99.90;;;;;;4913366;29;20059;-84
2021/04/12 01:53:43;;;;;;;17.45;9.02;;;;;;;;;;4909273;29;20409;-86
2021/04/12 01:56:16;;;;;;;17.70;8.20;;;2.10;99.90;;;;;;4928890;29;20491;-84
2021/04/12 01:59:13;;;;;;;16.77;7.90;;;2.10;99.90;;;;;;4909495;29;20057;-83
2021/04/12 02:01:59;;;;;;;14.07;7.55;;;;;;;;;;4928153;29;20578;-83
2021/04/12 02:04:53;;;;;;;19.08;8.50;;;2.00;99.90;;;;;;4911518;29;20492;-87
2021/04/12 02:07:21;;;;;;;15.52;7.85;;;;;;;;;;4924256;29;20048;-85
2021/04/12 02:10:26;;;;;;;16.15;8.55;;;2.00;99.90;;;;;;4913752;29;20052;-88
2021/04/12 02:13:21;;;;;;;19.65;9.30;;;1.90;99.90;;;;;;4930438;29;20055;-85
2021/04/12 02:16:15;;;;;;;17.10;8.05;;;1.90;99.90;;;;;;4928163;29;20044;-90
2021/04/12 02:18:57;;;;;;;23.85;10.43;;;1.80;99.90;;;;;;4902770;29;20408;-88
2021/04/12 02:21:46;;;;;;;17.75;8.90;;;1.80;99.90;;;;;;4914765;29;20059;-86
2021/04/12 02:24:58;;;;;;;19.50;8.65;;;1.90;99.90;;;;;;4921625;29;20051;-88
2021/04/12 02:27:40;;;;;;;20.23;10.57;;;1.90;99.90;;;;;;4900837;29;20056;-87
2021/04/12 02:30:42;;;;;;;18.05;9.15;;;1.80;99.90;;;;;;4936988;29;20075;-88
2021/04/12 02:33:28;;;;;;;;;;;1.80;99.90;;;;;;4928737;29;20064;-87
2021/04/12 02:35:58;;;;;;;21.00;7.82;;;;;;;;;;4908203;29;19923;-87
2021/04/12 02:38:44;;;;;;;19.58;9.88;;;1.80;99.90;;;;;;4915577;29;20052;-86
2021/04/12 02:41:30;;;;;;;16.63;8.35;;;;;;;;;;4921639;29;20060;-83
2021/04/12 02:44:29;;;;;;;20.55;10.45;;;1.70;99.90;;;;;;4916356;29;20059;-85
2021/04/12 02:47:26;;;;;;;17.52;8.38;;;1.50;99.90;;;;;;4926162;29;20060;-85
2021/04/12 02:49:54;;;;;;;19.58;9.80;;;;;;;;;;4921134;29;20531;-83
2021/04/12 02:52:27;;;;;;;18.42;8.23;;;1.60;99.90;;;;;;4917016;29;20052;-84
2021/04/12 02:55:07;;;;;;;22.52;10.73;;;;;;;;;;4935346;29;20059;-82
2021/04/12 02:58:11;;;;;;;23.33;10.10;;;1.70;99.90;;;;;;4925291;29;20051;-87
2021/04/12 03:01:07;;;;;;;26.40;10.63;;;1.60;99.90;;;;;;4932782;29;20056;-83
2021/04/12 03:04:04;;;;;;;19.10;8.90;;;1.60;99.90;;;;;;4919142;29;20056;-85
2021/04/12 03:06:54;;;;;;;20.17;9.57;;;1.50;99.90;;;;;;4938762;29;20055;-88
2021/04/12 03:09:48;;;;;;;18.90;10.55;;;1.60;99.90;;;;;;4946620;29;20133;-88
2021/04/12 03:12:45;;;;;;;23.63;10.98;;;1.50;99.90;;;;;;4950648;29;20059;-88
2021/04/12 03:15:33;;;;;;;23.38;10.55;;;1.50;99.90;;;;;;4919333;29;20067;-88
2021/04/12 03:18:28;;;;;;;18.58;9.52;;;1.50;99.90;;;;;;4923311;29;20063;-87
2021/04/12 03:21:11;;;;;;;23.13;9.38;;;1.50;99.90;;;;;;4934521;29;20060;-88
2021/04/12 03:24:15;;;;;;;24.65;10.63;;;1.50;99.90;;;;;;4943122;29;20099;-88
2021/04/12 03:26:51;;;;;;;21.23;10.63;;;1.50;99.90;;;;;;4947526;29;20055;-85
2021/04/12 03:29:28;;;;;;;20.30;9.93;;;1.60;99.90;;;;;;4948563;29;20057;-86
2021/04/12 03:32:23;;;;;;;19.77;8.93;;;1.50;99.90;;;;;;4957605;29;20052;-82
2021/04/12 03:34:54;;;;;;;16.73;8.65;;;;;;;;;;4938407;29;20047;-85
2021/04/12 03:37:40;;;;;;;19.52;8.48;;;1.50;99.90;;;;;;4932897;29;20044;-84
2021/04/12 03:40:39;;;;;;;22.27;11.65;;;1.60;99.90;;;;;;4950520;29;20443;-84
2021/04/12 03:43:28;;;;;;;27.35;10.25;;;1.40;99.90;;;;;;4883507;29;20435;-85
2021/04/12 03:46:16;;;;;;;21.15;10.05;;;1.50;99.90;;;;;;4941577;29;20056;-82
2021/04/12 03:48:56;;;;;;;20.92;8.20;;;;;;;;;;4940649;29;20070;-84
2021/04/12 03:51:36;;;;;;;18.08;10.02;;;;;;;;;;4953466;29;20055;-82
2021/04/12 03:54:19;;;;;;;22.98;9.05;;;1.50;99.90;;;;;;4932076;29;20055;-83
2021/04/12 03:57:17;;;;;;;16.20;7.90;;;1.60;99.90;;;;;;4933469;29;20047;-82
2021/04/12 04:00:00;;;;;;;20.25;10.15;;;2.00;99.90;;;;;;4930946;29;20051;-82
2021/04/12 04:02:39;;;;;;;17.52;8.30;;;1.50;99.90;;;;;;4945264;29;20059;-84
2021/04/12 04:05:35;;;;;;;23.90;9.55;;;1.50;99.90;;;;;;4921878;29;20057;-83
2021/04/12 04:08:09;;;;;;;17.15;10.40;;;;;;;;;;4924033;29;20060;-83
2021/04/12 04:10:37;;;;;;;19.10;8.70;;;;;;;;;;4952842;29;20171;-82
2021/04/12 04:13:34;;;;;;;19.38;8.93;;;1.40;99.90;;;;;;4953532;28;20611;-82
2021/04/12 04:16:32;;;;;;;13.43;7.40;;;1.50;99.90;;;;;;4919098;29;20062;-84
2021/04/12 04:19:23;;;;;;;16.27;8.60;;;1.50;99.90;;;;;;4927992;29;20056;-83
2021/04/12 04:22:19;;;;;;;19.42;8.65;;;1.50;99.90;;;;;;4940594;29;20150;-83
2021/04/12 04:25:25;;;;;;;15.73;7.38;;;1.50;99.90;;;;;;4931943;29;20059;-82
2021/04/12 04:27:59;;;;;;;19.00;8.35;;;;;;;;;;4921552;29;20055;-82
2021/04/12 04:30:53;;;;;;;14.45;7.40;;;1.60;99.90;;;;;;4934493;29;20047;-82
2021/04/12 04:33:46;;;;;;;15.32;6.85;;;1.50;99.90;;;;;;4950925;29;20051;-82
2021/04/12 04:36:25;;;;;;;14.93;7.65;;;1.70;99.90;;;;;;4929931;29;20055;-82
2021/04/12 04:39:30;;;;;;;16.40;7.13;;;1.70;99.90;;;;;;4948754;29;20043;-81
2021/04/12 04:42:28;;;;;;;17.88;8.55;;;1.80;99.90;;;;;;4952022;28;20055;-82
2021/04/12 04:45:05;;;;;;;16.30;7.07;;;1.80;99.90;;;;;;4910702;29;20059;-81
2021/04/12 04:47:34;;;;;;;14.15;7.20;;;;;;;;;;4926528;29;20047;-80
2021/04/12 04:50:29;;;;;;;19.15;7.78;;;1.90;99.90;;;;;;4941515;29;20234;-83
2021/04/12 04:53:09;;;;;;;17.65;7.65;;;;;;;;;;4919891;29;20065;-83
2021/04/12 04:56:01;;;;;;;13.32;6.90;;;1.90;99.90;;;;;;4954096;29;20522;-82
2021/04/12 04:59:12;;;;;;;14.60;7.63;;;2.00;99.90;;;;;;4922306;29;20052;-81
2021/04/12 05:02:04;;;;;;;14.80;6.00;;;2.20;99.90;;;;;;4927491;29;20084;-81
2021/04/12 05:04:33;;;;;;;12.60;6.20;;;;;;;;;;4921142;29;20048;-82
2021/04/12 05:07:42;;;;;;;11.60;5.88;;;1.80;99.90;;;;;;4916983;29;20063;-82
2021/04/12 05:10:34;;;;;;;19.20;7.60;;;1.80;99.90;;;;;;4955706;29;20082;-82
2021/04/12 05:13:14;;;;;;;16.73;7.35;;;2.10;99.90;;;;;;4958740;29;20058;-81
2021/04/12 05:16:11;;;;;;;14.27;7.00;;;2.40;99.90;;;;;;4940964;29;20051;-82
2021/04/12 05:19:05;;;;;;;14.80;7.07;;;2.20;99.90;;;;;;4922437;29;20452;-81
2021/04/12 05:22:00;;;;;;;11.23;6.10;;;2.10;99.90;;;;;;4910393;29;20056;-81
2021/04/12 05:24:37;;;;;;;12.80;6.57;;;;;;;;;;4922332;29;20627;-82
2021/04/12 05:27:21;;;;;;;10.27;5.00;;;2.20;99.90;;;;;;4913039;29;20059;-82
2021/04/12 05:30:16;;;;;;;14.32;6.53;;;2.30;99.90;;;;;;4910483;29;20048;-83
2021/04/12 05:32:50;;;;;;;13.95;6.45;;;2.20;99.90;;;;;;4923420;29;20047;-81
2021/04/12 05:35:44;;;;;;;14.43;6.97;;;2.30;99.90;;;;;;4929798;29;20055;-82
2021/04/12 05:38:30;;;;;;;14.13;7.20;;;2.40;99.90;;;;;;4924285;29;20418;-82
2021/04/12 05:41:32;;;;;;;15.85;8.80;;;2.40;99.90;;;;;;4917928;29;20055;-82
2021/04/12 05:44:21;;;;;;;13.07;6.55;;;2.40;99.90;;;;;;4912539;29;20048;-83
2021/04/12 05:46:48;;;;;;;14.30;7.05;;;;;;;;;;4952266;29;20055;-82
2021/04/12 05:49:39;;;;;;;13.95;7.13;;;3.00;99.90;;;;;;4934488;29;21004;-83
2021/04/12 05:52:46;;;;;;;13.68;6.80;;;2.60;99.90;;;;;;4922634;29;20412;-82
2021/04/12 05:55:50;;;;;;;13.05;6.55;;;2.60;99.90;;;;;;4850666;29;20057;-82
2021/04/12 05:58:18;;;;;;;13.23;5.43;;;;;;;;;;4908773;29;20052;-84
2021/04/12 06:00:51;;;;;;;16.40;6.00;;;2.70;99.90;;;;;;4895648;29;20059;-82
2021/04/12 06:03:56;;;;;;;23.15;6.13;;;2.70;99.90;;;;;;4889923;29;20048;-82
2021/04/12 06:06:53;;;;;;;10.90;5.43;;;2.70;99.90;;;;;;4898805;29;20060;-83
2021/04/12 06:10:00;;;;;;;12.77;5.85;;;2.70;99.90;;;;;;4915155;29;20063;-83
2021/04/12 06:12:27;;;;;;;7.63;4.85;;;;;;;;;;4939603;29;20067;-84
2021/04/12 06:15:32;;;;;;;7.68;5.07;;;2.90;99.90;;;;;;4943577;29;20488;-83
2021/04/12 06:18:26;;;;;;;10.60;5.70;;;2.90;99.90;;;;;;4920909;29;20054;-84
2021/04/12 06:20:53;;;;;;;16.13;5.90;;;;;;;;;;4934844;29;20047;-84
2021/04/12 06:23:27;;;;;;;11.45;5.50;;;;;;;;;;4940007;29;20507;-84
2021/04/12 06:25:54;;;;;;;11.00;5.45;;;;;;;;;;4916620;29;20052;-85
2021/04/12 06:28:37;;;;;;;12.85;4.72;;;2.60;99.90;;;;;;4922188;29;20510;-84
2021/04/12 06:31:31;;;;;;;10.00;5.32;;;3.00;99.90;;;;;;4888340;29;20047;-83
2021/04/12 06:34:36;;;;;;;16.17;5.25;;;3.20;99.90;;;;;;4932010;29;20063;-83
2021/04/12 06:37:26;;;;;;;13.35;5.25;;;3.10;99.90;;;;;;4932148;29;20382;-83
2021/04/12 06:39:53;;;;;;;11.13;5.35;;;;;;;;;;4938192;29;20066;-85
2021/04/12 06:42:32;;;;;;;12.98;4.75;;;3.20;99.90;;;;;;4943889;29;20043;-84
2021/04/12 06:45:16;;;;;;;8.95;4.55;;;0.50;99.90;;;;;;4920924;29;20056;-83
2021/04/12 06:48:21;;;;;;;17.40;6.78;;;3.30;99.90;;;;;;4931968;29;20078;-84
2021/04/12 06:51:09;;;;;;;8.55;4.60;;;3.30;99.90;;;;;;4916487;29;20412;-83
2021/04/12 06:53:57;;;;;;;9.38;4.97;;;3.30;99.90;;;;;;4942976;29;20054;-82
2021/04/12 06:56:39;;;;;;;8.07;4.72;;;3.30;99.90;;;;;;4921976;29;20043;-84
2021/04/12 06:59:38;;;;;;;7.53;4.10;;;3.20;99.90;;;;;;4921003;29;20079;-82
2021/04/12 07:02:27;;;;;;;8.88;4.43;;;3.30;99.90;;;;;;4936833;29;20062;-83
2021/04/12 07:05:16;;;;;;;8.48;4.60;;;3.40;99.90;;;;;;4915153;29;20078;-84
2021/04/12 07:08:09;;;;;;;9.40;4.20;;;3.40;99.90;;;;;;4938414;29;20063;-83
2021/04/12 07:11:04;;;;;;;8.07;3.70;;;3.40;99.90;;;;;;4913504;29;20055;-83
2021/04/12 07:14:01;;;;;;;10.52;5.25;;;3.40;99.90;;;;;;4919078;29;20051;-84
2021/04/12 07:16:29;;;;;;;11.90;4.82;;;;;;;;;;4905894;29;20412;-85
2021/04/12 07:19:35;;;;;;;12.80;4.90;;;3.60;99.90;;;;;;4902459;29;20760;-84
2021/04/12 07:22:29;;;;;;;9.48;4.10;;;3.40;99.90;;;;;;4845394;29;20068;-82
2021/04/12 07:25:49;;;;;;;9.50;4.78;;;3.50;99.90;;;;;;4860791;29;20049;-84
2021/04/12 07:28:57;;;;;;;11.68;5.70;;;3.50;99.90;;;;;;4927676;29;20066;-85
2021/04/12 07:31:52;;;;;;;14.38;4.85;;;3.40;99.90;;;;;;4927025;29;20051;-85
2021/04/12 07:34:50;;;;;;;8.77;4.53;;;3.50;99.90;;;;;;4927504;29;20067;-84
2021/04/12 07:37:18;;;;;;;6.18;4.07;;;;;;;;;;4910450;29;20145;-84
2021/04/12 07:40:12;;;;;;;7.57;3.92;;;3.50;99.90;;;;;;4904711;29;20063;-85
2021/04/12 07:43:26;;;;;;;6.63;4.25;;;3.60;99.90;;;;;;4925447;29;20062;-85
2021/04/12 07:46:02;;;;;;;5.50;3.45;;;;;;;;;;4898035;29;20051;-84
2021/04/12 07:48:56;;;;;;;11.57;4.13;;;3.50;99.90;;;;;;4913220;29;20075;-85
2021/04/12 07:51:38;;;;;;;8.43;3.88;;;3.70;99.90;;;;;;4915385;29;20051;-85
2021/04/12 07:54:21;;;;;;;10.25;3.70;;;;;;;;;;4914280;29;20057;-85
2021/04/12 07:57:09;;;;;;;9.35;4.38;;;;;;;;;;4913638;29;20059;-85
2021/04/12 07:59:40;;;;;;;10.30;4.65;;;;;;;;;;4909976;29;20067;-84
2021/04/12 08:02:29;;;;;;;7.47;5.03;;;3.90;99.90;;;;;;4931553;29;20151;-84
2021/04/12 08:05:31;;;;;;;5.50;4.07;;;4.00;99.90;;;;;;4922311;29;20460;-86
2021/04/12 08:08:17;;;;;;;9.13;4.18;;;4.00;99.90;;;;;;4921354;29;20047;-83
2021/04/12 08:11:18;;;;;;;8.15;3.75;;;4.20;99.90;;;;;;4932964;29;20059;-83
2021/04/12 08:14:20;;;;;;;5.72;3.60;;;4.70;99.90;;;;;;4906394;29;20074;-83
2021/04/12 08:17:07;;;;;;;6.50;4.25;;;4.30;99.90;;;;;;4932807;29;20047;-85
2021/04/12 08:19:48;;;;;;;7.55;4.07;;;4.30;99.90;;;;;;4903454;29;20052;-84
2021/04/12 08:22:45;;;;;;;9.02;4.25;;;4.40;99.90;;;;;;4920223;29;20048;-85
2021/04/12 08:25:28;;;;;;;8.05;4.28;;;4.60;99.90;;;;;;4923085;29;20059;-84
2021/04/12 08:28:14;;;;;;;9.70;4.40;;;4.60;99.90;;;;;;4923461;29;20411;-84
2021/04/12 08:30:42;;;;;;;6.22;3.03;;;;;;;;;;4911070;29;20054;-84
2021/04/12 08:33:38;;;;;;;4.35;3.05;;;4.60;99.90;;;;;;4920697;29;20164;-84
2021/04/12 08:36:31;;;;;;;6.70;5.03;;;4.90;99.90;;;;;;4929353;29;20389;-83
2021/04/12 08:39:39;;;;;;;6.75;3.50;;;5.00;99.90;;;;;;4910721;29;20072;-85
2021/04/12 08:42:07;;;;;;;12.80;4.75;;;;;;;;;;4917324;29;20055;-84
2021/04/12 08:45:00;;;;;;;5.28;3.13;;;5.50;99.90;;;;;;4912812;29;20052;-84
2021/04/12 08:48:04;;;;;;;6.90;3.63;;;5.30;99.90;;;;;;4930073;29;20059;-85
2021/04/12 08:50:58;;;;;;;5.65;3.40;;;5.50;99.90;;;;;;4933351;29;20052;-85
2021/04/12 08:53:41;;;;;;;4.65;2.95;;;5.40;99.90;;;;;;4930711;29;20062;-86
2021/04/12 08:56:47;;;;;;;4.80;3.20;;;5.50;99.90;;;;;;4929433;29;20048;-86
2021/04/12 08:59:14;;;;;;;8.55;2.95;;;;;;;;;;4909851;29;20066;-88
2021/04/12 09:02:27;;;;;;;3.75;2.70;;;5.40;99.90;;;;;;4923967;29;20067;-86
2021/04/12 09:05:07;;;;;;;7.22;3.00;;;5.70;99.90;;;;;;4909172;29;20063;-84
2021/04/12 09:08:01;;;;;;;10.55;4.82;;;5.70;99.90;;;;;;4919764;29;20060;-88
2021/04/12 09:10:41;;;;;;;4.53;2.95;;;5.80;99.90;;;;;;4906278;29;20071;-88
2021/04/12 09:13:46;;;;;;;9.02;3.42;;;6.00;99.90;;;;;;4924072;29;20048;-89
2021/04/12 09:16:26;;;;;;;6.55;3.30;;;6.20;99.90;;;;;;4925521;29;20483;-88
2021/04/12 09:19:29;;;;;;;4.72;2.53;;;6.30;99.90;;;;;;4936206;29;20059;-86
2021/04/12 09:22:25;;;;;;;7.65;2.60;;;6.40;99.90;;;;;;4910493;29;20060;-85
2021/04/12 09:25:22;;;;;;;3.83;2.35;;;6.50;99.90;;;;;;4928538;29;20379;-87
2021/04/12 09:28:03;;;;;;;7.85;3.53;;;6.50;99.90;;;;;;4928897;29;20052;-86
2021/04/12 09:30:31;;;;;;;8.57;3.45;;;;;;;;;;4920620;29;20084;-84
2021/04/12 09:33:19;;;;;;;5.05;1.88;;;6.70;99.90;;;;;;4935761;29;20532;-81
2021/04/12 09:36:14;;;;;;;6.53;2.05;;;7.10;99.90;;;;;;4932570;29;20056;-84
2021/04/12 09:38:41;;;;;;;2.58;1.80;;;;;;;;;;4921201;29;20045;-83
2021/04/12 09:41:30;;;;;;;6.70;3.13;;;7.00;99.90;;;;;;4928260;29;20056;-82
2021/04/12 09:44:11;;;;;;;3.92;2.35;;;7.00;99.90;;;;;;4912550;29;20056;-86
2021/04/12 09:47:03;;;;;;;5.68;2.10;;;7.20;99.90;;;;;;4917377;29;20059;-82
2021/04/12 09:49:31;;;;;;;6.65;2.15;;;;;;;;;;4934697;29;20052;-81
2021/04/12 09:52:22;;;;;;;7.25;2.20;;;7.40;99.90;;;;;;4924655;29;20059;-82
2021/04/12 09:55:08;;;;;;;5.43;2.10;;;7.50;99.90;;;;;;4931977;29;20068;-84
2021/04/12 09:57:59;;;;;;;4.07;2.47;;;7.50;99.90;;;;;;4936049;29;20063;-82
2021/04/12 10:01:01;;;;;;;4.05;2.40;;;7.60;99.90;;;;;;4927325;29;20063;-83
2021/04/12 10:04:00;;;;;;;6.70;2.30;;;7.70;99.90;;;;;;4930603;29;20055;-82
2021/04/12 10:06:40;;;;;;;2.97;2.20;;;;;;;;;;4933080;29;20444;-83
2021/04/12 10:09:11;;;;;;;2.55;1.85;;;;;;;;;;4934737;29;20059;-84
2021/04/12 10:11:56;;;;;;;2.50;2.30;;;7.60;99.90;;;;;;4940691;29;20051;-82
2021/04/12 10:14:35;;;;;;;5.10;2.55;;;7.50;99.90;;;;;;4935558;29;20211;-82
2021/04/12 10:17:23;;;;;;;4.20;2.60;;;7.60;99.90;;;;;;4919814;29;20538;-81
2021/04/12 10:19:55;;;;;;;5.40;3.10;;;7.60;99.90;;;;;;4901866;29;20066;-81
2021/04/12 10:22:36;;;;;;;6.47;3.03;;;;;;;;;;4901194;29;20048;-83
2021/04/12 10:25:08;;;;;;;3.20;2.33;;;;;;;;;;4920802;29;20245;-83
2021/04/12 10:27:49;;;;;;;6.43;3.67;;;7.60;99.90;;;;;;4915379;29;20579;-82
2021/04/12 10:30:25;;;;;;;4.53;2.78;;;;;;;;;;4930456;29;20060;-83
2021/04/12 10:33:02;;;;;;;7.63;4.20;;;7.60;99.90;;;;;;4925595;29;20048;-81
2021/04/12 10:35:32;;;;;;;9.60;3.65;;;;;;;;;;4898423;29;20063;-82
2021/04/12 10:38:31;;;;;;;20.33;3.67;;;7.90;99.90;;;;;;4915163;29;20051;-83
2021/04/12 10:41:37;;;;;;;4.38;2.20;;;8.10;99.90;;;;;;4924857;29;20060;-83
2021/04/12 10:44:29;;;;;;;6.97;2.83;;;8.50;99.90;;;;;;4907999;29;20063;-82
2021/04/12 10:47:11;;;;;;;4.85;2.80;;;8.60;99.90;;;;;;4913830;29;20801;-83
2021/04/12 10:50:12;;;;;;;3.42;1.88;;;8.60;99.90;;;;;;4930972;29;20048;-83
2021/04/12 10:53:02;;;;;;;3.38;2.20;;;8.70;99.90;;;;;;4933166;29;20495;-82
2021/04/12 10:55:46;;;;;;;4.20;2.38;;;8.60;99.90;;;;;;4906987;29;20048;-83
2021/04/12 10:58:24;;;;;;;3.70;2.58;;;9.10;99.90;;;;;;4924499;29;20059;-82
2021/04/12 11:00:56;;;;;;;3.45;2.50;;;8.70;99.90;;;;;;4924365;29;22034;-83
2021/04/12 11:03:47;;;;;;;3.40;2.10;;;8.90;99.90;;;;;;4891876;29;20044;-83
2021/04/12 11:06:24;;;;;;;;;;;8.80;99.90;;;;;;4927613;29;20534;-83
2021/04/12 11:09:10;;;;;;;3.60;2.47;;;8.70;99.90;;;;;;4912396;29;20318;-83
2021/04/12 11:11:47;;;;;;;3.70;2.30;;;8.80;99.90;;;;;;4902734;29;20468;-81
2021/04/12 11:14:31;;;;;;;2.97;2.40;;;9.00;99.90;;;;;;4924714;28;20521;-81
2021/04/12 11:17:09;;;;;;;4.47;2.45;;;8.90;99.90;;;;;;4899898;29;20056;-83
2021/04/12 11:19:48;;;;;;;5.47;2.65;;;8.90;99.90;;;;;;4919691;29;20051;-82
2021/04/12 11:22:43;;;;;;;7.70;2.80;;;8.30;99.90;;;;;;4904204;29;20048;-83
2021/04/12 11:25:27;;;;;;;5.63;1.90;;;8.80;99.90;;;;;;4890359;29;20044;-82
2021/04/12 11:28:13;;;;;;;4.03;2.05;;;8.90;99.90;;;;;;4916770;29;20593;-81
2021/04/12 11:30:50;;;;;;;55.60;8.55;;;9.00;99.90;;;;;;4929910;29;20173;-82
2021/04/12 11:33:20;;;;;;;7.63;2.45;;;;;;;;;;4944088;29;20066;-81
2021/04/12 11:36:00;;;;;;;10.13;2.78;;;;;;;;;;4899142;29;20063;-83
2021/04/12 11:38:34;;;;;;;;;;;8.80;99.90;;;;;;4937100;29;20051;-84
2021/04/12 11:41:13;;;;;;;2.95;2.08;;;8.80;99.90;;;;;;4911384;29;19923;-78
2021/04/12 11:43:45;;;;;;;3.28;2.30;;;8.90;99.90;;;;;;4940049;29;20079;-79
2021/04/12 11:46:19;;;;;;;10.82;2.63;;;8.70;99.90;;;;;;4911440;29;20056;-79
2021/04/12 11:49:15;;;;;;;3.35;2.17;;;8.70;99.90;;;;;;4919069;29;20476;-79
2021/04/12 11:52:07;;;;;;;6.32;3.17;;;8.70;99.90;;;;;;4904732;29;20055;-78
2021/04/12 11:54:46;;;;;;;3.10;2.22;;;8.80;99.90;;;;;;4903599;29;20572;-78
2021/04/12 11:57:40;;;;;;;5.78;2.53;;;9.10;99.90;;;;;;4921242;29;20048;-79
2021/04/12 12:00:08;;;;;;;6.97;2.65;;;;;;;;;;4915441;29;20074;-81
2021/04/12 12:03:00;;;;;;;7.65;2.08;;;;;;;;;;4913861;29;20496;-79
2021/04/12 12:05:28;;;;;;;11.23;2.83;;;;;;;;;;4926935;29;20059;-82
2021/04/12 12:07:59;;;;;;;4.07;2.80;;;9.80;99.90;;;;;;4928900;29;20056;-80
2021/04/12 12:11:04;;;;;;;5.28;3.05;;;10.00;98.80;;;;;;4913482;29;20059;-82
2021/04/12 12:13:40;;;;;;;3.22;1.98;;;10.40;97.40;;;;;;4922336;29;20059;-80
2021/04/12 12:16:26;;;;;;;2.67;2.00;;;10.70;97.00;;;;;;4928905;29;20059;-83
2021/04/12 12:18:59;;;;;;;7.90;3.13;;;10.50;95.10;;;;;;4939097;28;20062;-80
2021/04/12 12:21:37;;;;;;;2.53;2.05;;;10.60;99.90;;;;;;4898233;29;20063;-81
2021/04/12 12:24:13;;;;;;;2.00;1.80;;;10.90;94.40;;;;;;4922946;29;20055;-79
2021/04/12 12:26:53;;;;;;;4.57;1.85;;;10.50;94.70;;;;;;4931447;29;20063;-79
2021/04/12 12:29:33;;;;;;;3.78;2.30;;;10.40;95.30;;;;;;4932422;29;20048;-82
2021/04/12 12:32:13;;;;;;;8.07;2.53;;;10.20;94.30;;;;;;4927678;29;20540;-78
2021/04/12 12:34:52;;;;;;;6.95;2.05;;;10.00;94.90;;;;;;4911390;29;20063;-81
2021/04/12 12:37:19;;;;;;;8.25;2.65;;;;;;;;;;4918783;29;20059;-77
2021/04/12 12:39:50;;;;;;;3.40;2.10;;;10.20;96.50;;;;;;4933895;29;20297;-79
2021/04/12 12:42:35;;;;;;;7.07;3.17;;;10.30;96.30;;;;;;4919164;29;20059;-80
2021/04/12 12:45:08;;;;;;;11.23;2.85;;;;;;;;;;4916858;29;20047;-79
2021/04/12 12:47:46;;;;;;;4.53;2.38;;;10.60;95.00;;;;;;4915821;29;20052;-82
2021/04/12 12:50:52;;;;;;;4.95;2.33;;;10.70;94.70;;;;;;4928752;29;20052;-80
2021/04/12 12:53:30;;;;;;;7.78;2.50;;;10.40;93.00;;;;;;4920008;29;20411;-80
2021/04/12 12:56:12;;;;;;;8.80;2.80;;;10.30;92.80;;;;;;4925954;29;20052;-80
2021/04/12 12:58:59;;;;;;;134.60;20.48;;;11.70;95.20;;;;;;4926245;29;20074;-78
2021/04/12 13:01:39;;;;;;;11.52;4.25;;;11.40;95.20;;;;;;4927422;29;20048;-79
2021/04/12 13:04:10;;;;;;;1.98;1.80;;;10.10;93.90;;;;;;4930335;29;20056;-79
2021/04/12 13:06:39;;;;;;;9.35;2.72;;;10.00;91.80;;;;;;4929078;29;20058;-81
2021/04/12 13:09:31;;;;;;;6.88;2.47;;;9.90;90.30;;;;;;4925977;29;20063;-79
2021/04/12 13:12:04;;;;;;;6.45;3.05;;;9.90;90.50;;;;;;4912184;29;20071;-79
2021/04/12 13:14:49;;;;;;;6.00;2.17;;;;;;;;;;4913610;29;20052;-84
2021/04/12 13:17:16;;;;;;;2.58;2.33;;;;;;;;;;4923213;29;20063;-78
2021/04/12 13:19:53;;;;;;;6.25;2.60;;;10.10;91.70;;;;;;4910807;29;20056;-79
2021/04/12 13:22:25;;;;;;;5.47;2.85;;;10.20;91.10;;;;;;4923292;29;20062;-78
2021/04/12 13:24:53;;;;;;;7.38;3.15;;;;;;;;;;4909981;29;20051;-81
2021/04/12 13:27:27;;;;;;;5.43;2.55;;;10.70;91.00;;;;;;4908760;29;20485;-82
2021/04/12 13:29:58;;;;;;;8.85;3.47;;;11.40;90.40;;;;;;4928924;29;20079;-82
2021/04/12 13:32:28;;;;;;;;;;;11.20;90.20;;;;;;4919170;29;20084;-80
2021/04/12 13:35:11;;;;;;;33.72;9.35;;;11.90;84.70;;;;;;4917521;29;19927;-82
2021/04/12 13:38:00;;;;;;;6.80;2.55;;;11.90;98.90;;;;;;4923892;29;20060;-80
2021/04/12 13:40:30;;;;;;;3.53;2.05;;;;;;;;;;4916193;29;20555;-84
2021/04/12 13:43:09;;;;;;;8.88;2.15;;;12.40;76.90;;;;;;4924326;29;20071;-79
2021/04/12 13:45:42;;;;;;;72.25;11.77;;;12.10;80.70;;;;;;4919274;29;20058;-81
2021/04/12 13:48:20;;;;;;;6.28;2.55;;;12.00;76.90;;;;;;4931528;29;20051;-79
2021/04/12 13:50:58;;;;;;;3.05;1.98;;;11.80;77.10;;;;;;4905948;29;20064;-79
2021/04/12 13:53:44;;;;;;;5.45;1.90;;;11.70;77.80;;;;;;4910053;29;20047;-79
2021/04/12 13:56:13;;;;;;;2.88;2.35;;;;;;;;;;4911355;29;20087;-79
2021/04/12 13:58:55;;;;;;;3.92;2.28;;;11.90;76.90;;;;;;4906533;29;20052;-81
2021/04/12 14:01:25;;;;;;;4.70;2.42;;;12.30;80.40;;;;;;4930175;29;20050;-84
2021/04/12 14:04:11;;;;;;;4.75;2.53;;;12.50;78.50;;;;;;4923755;29;20048;-83
2021/04/12 14:06:58;;;;;;;3.78;2.42;;;12.50;75.00;;;;;;4906468;29;20048;-86
2021/04/12 14:09:39;;;;;;;5.07;2.15;;;12.40;77.90;;;;;;4924448;29;20396;-80
2021/04/12 14:12:14;;;;;;;8.05;2.38;;;12.20;76.90;;;;;;4917130;29;20070;-79
2021/04/12 14:14:41;;;;;;;4.35;2.10;;;;;;;;;;4922831;29;20459;-80
2021/04/12 14:17:19;;;;;;;3.97;2.63;;;11.60;75.70;;;;;;4926071;29;20054;-81
2021/04/12 14:19:51;;;;;;;4.53;2.13;;;11.40;74.60;;;;;;4926862;29;20503;-85
2021/04/12 14:22:34;;;;;;;4.18;2.45;;;11.30;71.10;;;;;;4931237;29;20067;-82
2021/04/12 14:25:17;;;;;;;4.22;2.30;;;11.20;95.30;;;;;;4925873;29;20058;-80
2021/04/12 14:27:45;;;;;;;12.05;2.80;;;;;;;;;;4926786;29;20059;-81
2021/04/12 14:30:18;;;;;;;5.68;2.70;;;10.70;75.30;;;;;;4904942;29;20052;-80
2021/04/12 14:33:00;;;;;;;6.50;2.35;;;11.40;72.00;;;;;;4924082;29;20051;-80
2021/04/12 14:35:31;;;;;;;5.63;2.23;;;12.00;74.60;;;;;;4910048;29;20071;-81
2021/04/12 14:38:11;;;;;;;;;;;12.00;73.60;;;;;;4927456;29;20051;-82
2021/04/12 14:40:42;;;;;;;3.80;2.03;;;13.80;70.90;;;;;;4928097;29;20474;-82
2021/04/12 14:43:31;;;;;;;8.50;2.45;;;14.30;65.40;;;;;;4925404;29;20052;-82
2021/04/12 14:46:12;;;;;;;3.55;1.88;;;14.60;63.20;;;;;;4924888;29;20454;-81
2021/04/12 14:48:53;;;;;;;3.30;1.90;;;14.40;62.40;;;;;;4922882;29;20521;-82